Time;durP1;ratioP1;P1;durP2;ratioP2;P2;SDS_P1;SDS_P2;PMS_P1;PMS_P2;Temp;Humidity;BMP_temperature;BMP_pressure;BME280_temperature;BME280_humidity;BME280_pressure;Samples;Min_cycle;Max_cycle;Signal;HPM_P1;HPM_P2
2022/11/11 00:00:42;;;;;;;;;;;22.40;57.60;;;;;;1548623;75;1467;-64
2022/11/11 00:02:44;;;;;;;;;;;22.50;57.70;;;;;;1547566;75;658;-63
2022/11/11 00:04:46;;;;;;;;;;;22.40;57.70;;;;;;1547135;75;1951;-64
2022/11/11 00:06:47;;;;;;;;;;;22.50;57.80;;;;;;1543710;75;704;-62
2022/11/11 00:08:49;;;;;;;;;;;22.50;57.80;;;;;;1544427;75;665;-62
2022/11/11 00:10:51;;;;;;;;;;;22.50;57.80;;;;;;1547825;75;734;-65
2022/11/11 00:12:53;;;;;;;;;;;22.40;57.70;;;;;;1546376;75;678;-63
2022/11/11 00:14:55;;;;;;;;;;;22.40;57.80;;;;;;1547677;75;1497;-62
2022/11/11 00:26:16;;;;;;;;;;;22.40;58.00;;;;;;1540156;75;1877;-64
2022/11/11 00:28:17;;;;;;;;;;;22.40;58.00;;;;;;1547150;75;1446;-64
2022/11/11 00:30:19;;;;;;;;;;;22.40;58.00;;;;;;1547238;75;599;-65
2022/11/11 00:32:29;;;;;;;;;;;22.50;58.10;;;;;;1549060;75;687;-64
2022/11/11 00:34:27;;;;;;;;;;;22.40;58.10;;;;;;1549072;75;1162;-64
2022/11/11 00:36:29;;;;;;;;;;;22.40;58.10;;;;;;1547691;75;659;-65
2022/11/11 00:38:46;;;;;;;;;;;22.40;58.20;;;;;;1547175;75;654;-64
2022/11/11 00:40:48;;;;;;;;;;;22.40;58.20;;;;;;1546924;75;556;-64
2022/11/11 00:42:50;;;;;;;;;;;22.40;58.10;;;;;;1550645;75;1476;-63
2022/11/11 00:44:52;;;;;;;;;;;22.40;58.20;;;;;;1544158;75;1954;-65
2022/11/11 00:51:33;;;;;;;;;;;22.40;58.20;;;;;;1550955;75;1623;-64
2022/11/11 00:53:37;;;;;;;;;;;22.30;58.30;;;;;;1557751;75;735;-65
2022/11/11 00:55:39;;;;;;;;;;;22.40;58.30;;;;;;1573704;71;3058;-66
2022/11/11 00:57:41;;;;;;;;;;;22.40;58.30;;;;;;1589157;74;1609;-68
2022/11/11 00:59:43;;;;;;;;;;;22.40;58.40;;;;;;1580133;74;706;-66
2022/11/11 01:01:45;;;;;;;;;;;22.40;58.40;;;;;;1579280;74;736;-65
2022/11/11 01:03:47;;;;;;;;;;;22.40;58.40;;;;;;1577485;74;678;-67
2022/11/11 01:05:48;;;;;;;;;;;22.30;58.90;;;;;;1576496;74;1933;-63
2022/11/11 01:07:50;;;;;;;;;;;22.30;58.80;;;;;;1579017;74;718;-65
2022/11/11 01:09:52;;;;;;;;;;;22.30;58.90;;;;;;1575605;74;643;-70
2022/11/11 01:11:54;;;;;;;;;;;22.30;58.50;;;;;;1574957;74;1679;-65
2022/11/11 01:13:56;;;;;;;;;;;22.30;58.50;;;;;;1575808;74;766;-68
2022/11/11 01:15:59;;;;;;;;;;;22.20;58.70;;;;;;1591745;73;1122;-67
2022/11/11 01:18:01;;;;;;;;;;;22.30;58.90;;;;;;1584642;74;647;-66
2022/11/11 01:20:03;;;;;;;;;;;22.30;58.50;;;;;;1573106;74;540;-68
2022/11/11 01:22:04;;;;;;;;;;;22.30;58.80;;;;;;1577466;74;750;-65
2022/11/11 01:24:06;;;;;;;;;;;22.20;58.70;;;;;;1565836;74;1547;-66
2022/11/11 01:26:15;;;;;;;;;;;22.30;58.90;;;;;;1576930;74;1947;-67
2022/11/11 01:28:17;;;;;;;;;;;22.20;58.80;;;;;;1570745;74;739;-67
2022/11/11 01:30:19;;;;;;;;;;;22.20;58.80;;;;;;1573435;74;720;-69
2022/11/11 01:32:20;;;;;;;;;;;22.20;58.80;;;;;;1568958;74;861;-67
2022/11/11 01:34:22;;;;;;;;;;;22.40;58.50;;;;;;1558938;74;1147;-70
2022/11/11 01:36:25;;;;;;;;;;;22.30;58.40;;;;;;1567593;74;885;-66
2022/11/11 01:38:27;;;;;;;;;;;22.30;58.50;;;;;;1563773;74;1361;-67
2022/11/11 01:40:29;;;;;;;;;;;22.30;58.80;;;;;;1582810;74;664;-67
2022/11/11 01:42:31;;;;;;;;;;;22.30;58.90;;;;;;1575597;74;645;-68
2022/11/11 01:44:40;;;;;;;;;;;22.30;58.90;;;;;;1574098;74;1155;-69
2022/11/11 01:46:55;;;;;;;;;;;22.20;58.80;;;;;;1571282;74;1935;-68
2022/11/11 01:49:19;;;;;;;;;;;22.30;58.90;;;;;;1576404;74;765;-70
2022/11/11 01:51:29;;;;;;;;;;;22.30;59.00;;;;;;1572724;74;633;-70
2022/11/11 01:53:31;;;;;;;;;;;22.20;58.90;;;;;;1547504;74;1608;-70
2022/11/11 01:55:32;;;;;;;;;;;22.30;59.00;;;;;;1577181;74;1180;-69
2022/11/11 01:57:36;;;;;;;;;;;22.30;59.00;;;;;;1574100;74;621;-67
2022/11/11 01:59:38;;;;;;;;;;;22.30;58.90;;;;;;1572421;74;751;-68
2022/11/11 02:01:40;;;;;;;;;;;22.20;58.70;;;;;;1573482;74;752;-69
2022/11/11 02:05:40;;;;;;;;;;;22.30;58.90;;;;;;1562572;74;648;-67
2022/11/11 02:05:45;;;;;;;;;;;22.30;58.80;;;;;;1571662;74;1924;-69
2022/11/11 02:07:47;;;;;;;;;;;22.20;58.70;;;;;;1575081;74;1588;-66
2022/11/11 02:09:49;;;;;;;;;;;22.30;58.80;;;;;;1579427;74;687;-69
2022/11/11 02:16:30;;;;;;;;;;;22.30;58.90;;;;;;1572566;74;733;-70
2022/11/11 02:18:32;;;;;;;;;;;22.20;58.70;;;;;;1562279;74;680;-71
2022/11/11 02:20:36;;;;;;;;;;;22.30;59.00;;;;;;1571946;74;1357;-69
2022/11/11 02:22:39;;;;;;;;;;;22.30;59.00;;;;;;1572515;74;559;-69
2022/11/11 02:24:41;;;;;;;;;;;22.20;58.80;;;;;;1567793;74;1131;-69
2022/11/11 02:26:43;;;;;;;;;;;22.30;58.90;;;;;;1564400;74;1934;-69
2022/11/11 02:28:45;;;;;;;;;;;22.40;58.90;;;;;;1569590;74;727;-67
2022/11/11 02:30:47;;;;;;;;;;;22.20;58.90;;;;;;1558626;74;714;-70
2022/11/11 02:32:49;;;;;;;;;;;22.30;59.10;;;;;;1570357;74;534;-69
2022/11/11 02:34:51;;;;;;;;;;;22.30;59.10;;;;;;1575946;73;1628;-68
2022/11/11 02:36:53;;;;;;;;;;;22.40;59.10;;;;;;1575913;74;704;-67
2022/11/11 02:38:55;;;;;;;;;;;22.30;59.10;;;;;;1570329;74;674;-69
2022/11/11 02:41:57;;;;;;;;;;;22.20;59.00;;;;;;1583563;74;789;-70
2022/11/11 02:43:09;;;;;;;;;;;22.20;59.10;;;;;;1559893;74;1473;-69
2022/11/11 02:45:11;;;;;;;;;;;22.20;59.10;;;;;;1584746;73;1953;-68
2022/11/11 02:47:13;;;;;;;;;;;22.20;59.10;;;;;;1562388;74;746;-71
2022/11/11 02:49:15;;;;;;;;;;;22.20;59.10;;;;;;1578600;74;1561;-70
2022/11/11 02:51:17;;;;;;;;;;;22.20;59.00;;;;;;1580108;74;802;-68
2022/11/11 02:53:19;;;;;;;;;;;22.30;59.10;;;;;;1574365;74;737;-69
2022/11/11 02:55:21;;;;;;;;;;;22.20;59.00;;;;;;1574838;74;1158;-68
2022/11/11 02:57:22;;;;;;;;;;;22.20;59.00;;;;;;1573275;74;759;-69
2022/11/11 02:59:24;;;;;;;;;;;22.30;59.10;;;;;;1564632;74;774;-70
2022/11/11 03:01:26;;;;;;;;;;;22.30;59.20;;;;;;1560499;74;687;-69
2022/11/11 03:03:28;;;;;;;;;;;22.20;59.10;;;;;;1569485;74;1593;-71
2022/11/11 03:05:30;;;;;;;;;;;22.30;59.20;;;;;;1571510;74;1943;-70
2022/11/11 03:07:32;;;;;;;;;;;22.30;59.00;;;;;;1571672;74;745;-70
2022/11/11 03:09:34;;;;;;;;;;;22.40;59.00;;;;;;1577852;74;750;-70
2022/11/11 03:11:37;;;;;;;;;;;22.40;59.00;;;;;;1577110;74;720;-68
2022/11/11 03:13:39;;;;;;;;;;;22.30;59.00;;;;;;1572477;74;779;-69
2022/11/11 03:15:41;;;;;;;;;;;22.40;58.90;;;;;;1571665;73;1080;-70
2022/11/11 03:17:43;;;;;;;;;;;22.40;58.90;;;;;;1576216;74;1562;-70
2022/11/11 03:19:45;;;;;;;;;;;22.40;59.00;;;;;;1579259;74;709;-71
2022/11/11 03:21:47;;;;;;;;;;;22.30;59.00;;;;;;1575492;74;869;-71
2022/11/11 03:23:49;;;;;;;;;;;22.30;58.80;;;;;;1568231;74;681;-69
2022/11/11 03:25:50;;;;;;;;;;;22.40;58.50;;;;;;1575775;74;1939;-69
2022/11/11 03:27:52;;;;;;;;;;;22.40;58.40;;;;;;1569350;74;783;-69
2022/11/11 03:29:54;;;;;;;;;;;22.40;58.20;;;;;;1575718;74;675;-67
2022/11/11 03:31:56;;;;;;;;;;;22.40;58.30;;;;;;1577322;74;1324;-69
2022/11/11 03:34:40;;;;;;;;;;;22.40;58.10;;;;;;1583645;74;698;-70
2022/11/11 03:36:05;;;;;;;;;;;22.40;58.10;;;;;;1572159;74;1333;-69
2022/11/11 03:38:22;;;;;;;;;;;22.50;58.20;;;;;;1571218;74;888;-69
2022/11/11 03:40:19;;;;;;;;;;;22.40;58.10;;;;;;1570229;74;1631;-69
2022/11/11 03:42:21;;;;;;;;;;;22.40;58.10;;;;;;1569448;74;672;-71
2022/11/11 03:44:23;;;;;;;;;;;22.50;58.30;;;;;;1575437;73;1054;-72
2022/11/11 03:46:25;;;;;;;;;;;22.40;58.10;;;;;;1576825;74;1942;-70
2022/11/11 03:48:28;;;;;;;;;;;22.40;58.10;;;;;;1577591;74;689;-71
2022/11/11 03:50:30;;;;;;;;;;;22.40;58.10;;;;;;1572779;74;726;-69
2022/11/11 03:52:31;;;;;;;;;;;22.40;58.00;;;;;;1575411;74;722;-67
2022/11/11 03:54:33;;;;;;;;;;;22.40;58.10;;;;;;1579177;74;1201;-67
2022/11/11 03:56:35;;;;;;;;;;;22.40;58.20;;;;;;1570319;74;791;-69
2022/11/11 03:58:37;;;;;;;;;;;22.40;58.10;;;;;;1582322;74;719;-68
2022/11/11 04:00:39;;;;;;;;;;;22.30;58.40;;;;;;1575663;74;1693;-65
2022/11/11 04:12:00;;;;;;;;;;;22.40;58.10;;;;;;1568982;74;1686;-66
2022/11/11 04:16:26;;;;;;;;;;;22.40;58.20;;;;;;1575652;74;1656;-68
2022/11/11 04:23:08;;;;;;;;;;;22.30;58.40;;;;;;1583441;74;1663;-66
2022/11/11 04:27:29;;;;;;;;;;;22.40;58.90;;;;;;1570811;74;1874;-71
2022/11/11 04:29:31;;;;;;;;;;;22.30;59.00;;;;;;1581195;74;729;-67
2022/11/11 04:31:33;;;;;;;;;;;22.20;59.10;;;;;;1579775;74;693;-69
2022/11/11 04:33:35;;;;;;;;;;;22.20;59.20;;;;;;1570258;74;775;-66
2022/11/11 04:35:37;;;;;;;;;;;22.20;59.10;;;;;;1564408;74;1134;-68
2022/11/11 04:37:46;;;;;;;;;;;22.30;59.10;;;;;;1568619;74;820;-69
2022/11/11 04:42:08;;;;;;;;;;;22.10;59.30;;;;;;1565998;74;1638;-68
2022/11/11 04:46:29;;;;;;;;;;;22.10;59.40;;;;;;1571091;74;1914;-68
2022/11/11 04:48:31;;;;;;;;;;;22.10;59.60;;;;;;1574706;74;656;-69
2022/11/11 04:50:38;;;;;;;;;;;22.10;59.70;;;;;;1573769;74;746;-69
2022/11/11 04:52:40;;;;;;;;;;;22.00;59.60;;;;;;1569653;74;826;-69
2022/11/11 04:56:49;;;;;;;;;;;22.00;59.80;;;;;;1528577;75;1660;-69
2022/11/11 04:59:14;;;;;;;;;;;22.00;59.80;;;;;;1573244;74;622;-70
2022/11/11 05:00:54;;;;;;;;;;;22.00;59.80;;;;;;1570142;74;1343;-70
2022/11/11 05:05:16;;;;;;;;;;;21.90;60.00;;;;;;1572338;74;1290;-67
2022/11/11 05:09:37;;;;;;;;;;;21.90;60.20;;;;;;1564263;74;1667;-69
2022/11/11 05:11:39;;;;;;;;;;;21.90;60.30;;;;;;1563887;74;770;-70
2022/11/11 05:23:00;;;;;;;;;;;21.80;60.40;;;;;;1573910;74;1665;-65
2022/11/11 05:27:22;;;;;;;;;;;21.70;60.50;;;;;;1580920;74;1901;-69
2022/11/11 05:29:24;;;;;;;;;;;21.80;60.50;;;;;;1575786;74;728;-68
2022/11/11 05:31:26;;;;;;;;;;;21.70;60.60;;;;;;1576671;74;720;-72
2022/11/11 05:33:28;;;;;;;;;;;21.70;60.60;;;;;;1575630;74;627;-69
2022/11/11 05:35:30;;;;;;;;;;;21.80;60.70;;;;;;1578630;73;1096;-69
2022/11/11 05:37:32;;;;;;;;;;;22.00;60.50;;;;;;1571506;74;1510;-69
2022/11/11 05:39:34;;;;;;;;;;;22.10;60.00;;;;;;1578023;74;713;-69
2022/11/11 05:41:36;;;;;;;;;;;22.10;59.70;;;;;;1579389;74;710;-66
2022/11/11 05:43:37;;;;;;;;;;;22.10;59.40;;;;;;1574418;74;661;-68
2022/11/11 05:45:41;;;;;;;;;;;22.20;59.20;;;;;;1570800;74;1130;-69
2022/11/11 05:47:43;;;;;;;;;;;22.20;59.00;;;;;;1575071;74;1927;-69
2022/11/11 05:49:45;;;;;;;;;;;22.30;58.90;;;;;;1578131;74;525;-70
2022/11/11 05:51:47;;;;;;;;;;;22.20;58.40;;;;;;1573927;74;1551;-65
2022/11/11 05:53:49;;;;;;;;;;;22.30;58.40;;;;;;1574901;74;713;-72
2022/11/11 05:55:51;;;;;;;;;;;22.30;58.20;;;;;;1580547;74;1114;-68
2022/11/11 05:57:53;;;;;;;;;;;22.40;58.20;;;;;;1575254;74;795;-66
2022/11/11 05:59:57;;;;;;;;;;;22.30;58.10;;;;;;1575846;74;724;-67
2022/11/11 06:01:58;;;;;;;;;;;22.30;58.00;;;;;;1575441;74;1655;-67
2022/11/11 06:04:00;;;;;;;;;;;22.30;58.00;;;;;;1571085;74;766;-68
2022/11/11 06:06:02;;;;;;;;;;;22.30;57.90;;;;;;1576091;74;1386;-65
2022/11/11 06:08:04;;;;;;;;;;;22.40;57.80;;;;;;1575281;74;1956;-69
2022/11/11 06:13:00;;;;;;;;;;;22.30;57.90;;;;;;1563087;74;1640;-67
2022/11/11 06:14:30;;;;;;;;;;;22.20;57.80;;;;;;1571122;74;1484;-68
2022/11/11 06:16:32;;;;;;;;;;;22.10;58.10;;;;;;1573031;74;626;-66
2022/11/11 06:18:33;;;;;;;;;;;22.00;58.20;;;;;;1586265;74;720;-66
2022/11/11 06:20:35;;;;;;;;;;;22.10;58.30;;;;;;1585840;74;1367;-64
2022/11/11 06:22:56;;;;;;;;;;;22.00;58.60;;;;;;1587294;74;628;-65
2022/11/11 06:26:11;;;;;;;;;;;22.00;58.70;;;;;;1573246;74;1185;-64
2022/11/11 06:27:01;;;;;;;;;;;22.00;58.80;;;;;;1579986;74;1925;-66
2022/11/11 06:29:03;;;;;;;;;;;21.90;58.80;;;;;;1588926;74;771;-64
2022/11/11 06:31:06;;;;;;;;;;;21.90;58.80;;;;;;1570065;74;657;-62
2022/11/11 06:33:08;;;;;;;;;;;21.90;58.90;;;;;;1589117;74;744;-65
2022/11/11 06:35:10;;;;;;;;;;;21.90;58.80;;;;;;1575085;73;1591;-65
2022/11/11 06:37:12;;;;;;;;;;;21.90;58.70;;;;;;1573952;74;745;-64
2022/11/11 06:39:14;;;;;;;;;;;21.90;58.60;;;;;;1584880;74;757;-64
2022/11/11 06:41:16;;;;;;;;;;;21.90;58.60;;;;;;1581209;74;794;-65
2022/11/11 06:43:17;;;;;;;;;;;21.90;58.60;;;;;;1578311;74;741;-65
2022/11/11 06:45:19;;;;;;;;;;;21.90;58.30;;;;;;1577034;74;1091;-67
2022/11/11 06:47:21;;;;;;;;;;;21.90;58.20;;;;;;1574346;74;1953;-65
2022/11/11 06:49:23;;;;;;;;;;;21.90;58.20;;;;;;1581800;74;1647;-65
2022/11/11 06:51:25;;;;;;;;;;;21.90;58.10;;;;;;1576036;74;742;-66
2022/11/11 06:53:28;;;;;;;;;;;21.90;58.10;;;;;;1582649;74;772;-65
2022/11/11 06:55:30;;;;;;;;;;;21.90;58.10;;;;;;1573054;72;222997;-61
2022/11/11 06:57:31;;;;;;;;;;;21.90;58.00;;;;;;1537465;76;1240;-62
2022/11/11 06:59:33;;;;;;;;;;;21.90;58.10;;;;;;1517678;77;673;-61
2022/11/11 07:01:35;;;;;;;;;;;21.90;58.00;;;;;;1583931;74;1464;-62
2022/11/11 07:03:37;;;;;;;;;;;22.00;57.90;;;;;;1570926;74;701;-62
2022/11/11 07:05:39;;;;;;;;;;;21.90;57.90;;;;;;1577698;74;707;-62
2022/11/11 07:07:41;;;;;;;;;;;22.00;57.80;;;;;;1581508;74;1918;-63
2022/11/11 07:09:43;;;;;;;;;;;22.00;57.70;;;;;;1574866;74;732;-62
2022/11/11 07:11:45;;;;;;;;;;;22.00;57.70;;;;;;1574567;74;718;-62
2022/11/11 07:13:47;;;;;;;;;;;22.00;57.70;;;;;;1564321;74;684;-61
2022/11/11 07:15:49;;;;;;;;;;;22.00;57.60;;;;;;1575544;74;1467;-62
2022/11/11 07:17:50;;;;;;;;;;;22.00;57.60;;;;;;1578916;74;1124;-62
2022/11/11 07:19:52;;;;;;;;;;;22.00;57.50;;;;;;1571949;74;612;-62
2022/11/11 07:21:54;;;;;;;;;;;22.00;57.40;;;;;;1562062;74;639;-62
2022/11/11 07:23:56;;;;;;;;;;;22.00;57.30;;;;;;1575990;74;734;-62
2022/11/11 07:25:58;;;;;;;;;;;22.00;57.30;;;;;;1575446;74;710;-62
2022/11/11 07:28:00;;;;;;;;;;;22.00;57.30;;;;;;1564236;74;1938;-60
2022/11/11 07:30:02;;;;;;;;;;;22.00;57.20;;;;;;1558904;74;1527;-60
2022/11/11 07:32:04;;;;;;;;;;;22.10;57.20;;;;;;1583697;74;711;-61
2022/11/11 07:34:06;;;;;;;;;;;22.10;57.10;;;;;;1581724;74;667;-60
2022/11/11 07:36:08;;;;;;;;;;;22.10;57.10;;;;;;1582057;74;635;-60
2022/11/11 07:38:09;;;;;;;;;;;22.10;57.10;;;;;;1574908;74;1153;-61
2022/11/11 07:40:12;;;;;;;;;;;22.10;56.90;;;;;;1586508;74;686;-60
2022/11/11 07:42:14;;;;;;;;;;;22.10;56.90;;;;;;1584872;74;658;-60
2022/11/11 07:44:16;;;;;;;;;;;22.10;56.90;;;;;;1570525;74;1465;-60
2022/11/11 07:46:18;;;;;;;;;;;22.10;56.90;;;;;;1583865;73;957;-60
2022/11/11 07:48:20;;;;;;;;;;;22.10;56.90;;;;;;1573373;74;1935;-60
2022/11/11 07:50:22;;;;;;;;;;;22.10;56.90;;;;;;1583865;74;612;-60
2022/11/11 07:52:24;;;;;;;;;;;22.10;56.90;;;;;;1574989;74;822;-61
2022/11/11 07:54:26;;;;;;;;;;;22.10;56.80;;;;;;1572989;74;721;-61
2022/11/11 07:56:27;;;;;;;;;;;22.10;56.80;;;;;;1531523;76;757;-60
2022/11/11 07:58:29;;;;;;;;;;;22.20;56.70;;;;;;1505857;77;1334;-61
2022/11/11 08:00:31;;;;;;;;;;;22.10;56.70;;;;;;1513063;77;677;-60
2022/11/11 08:02:33;;;;;;;;;;;22.10;56.70;;;;;;1539019;76;591;-61
2022/11/11 08:04:35;;;;;;;;;;;22.10;56.70;;;;;;1538149;76;641;-61
2022/11/11 08:06:37;;;;;;;;;;;22.20;56.60;;;;;;1530227;76;651;-61
2022/11/11 08:08:39;;;;;;;;;;;22.20;56.50;;;;;;1524180;76;1923;-61
2022/11/11 08:10:41;;;;;;;;;;;22.20;56.60;;;;;;1534070;76;647;-61
2022/11/11 08:15:03;;;;;;;;;;;22.20;56.50;;;;;;1530979;76;744;-61
2022/11/11 08:17:04;;;;;;;;;;;22.20;56.50;;;;;;1529275;76;611;-61
2022/11/11 08:19:06;;;;;;;;;;;22.20;56.60;;;;;;1530609;76;1113;-61
2022/11/11 08:21:08;;;;;;;;;;;22.20;56.50;;;;;;1521541;76;669;-61
2022/11/11 08:23:10;;;;;;;;;;;22.10;56.50;;;;;;1515063;76;696;-61
2022/11/11 08:25:15;;;;;;;;;;;22.20;56.50;;;;;;1527117;76;685;-61
2022/11/11 08:27:17;;;;;;;;;;;22.10;56.50;;;;;;1527120;76;1928;-61
2022/11/11 08:29:19;;;;;;;;;;;22.20;56.50;;;;;;1528992;76;933;-62
2022/11/11 08:31:21;;;;;;;;;;;22.20;56.40;;;;;;1530627;76;575;-61
2022/11/11 08:33:23;;;;;;;;;;;22.10;56.30;;;;;;1523140;76;632;-61
2022/11/11 08:35:24;;;;;;;;;;;22.10;56.30;;;;;;1523037;76;665;-61
2022/11/11 08:37:27;;;;;;;;;;;22.20;56.30;;;;;;1519486;76;1154;-61
2022/11/11 08:39:29;;;;;;;;;;;22.20;56.30;;;;;;1516894;76;694;-61
2022/11/11 08:41:31;;;;;;;;;;;22.20;56.30;;;;;;1518210;76;1467;-61
2022/11/11 08:43:33;;;;;;;;;;;22.20;56.30;;;;;;1520986;76;642;-61
2022/11/11 08:45:35;;;;;;;;;;;22.20;56.30;;;;;;1509474;76;680;-62
2022/11/11 08:47:36;;;;;;;;;;;22.20;56.30;;;;;;1528721;76;1940;-61
2022/11/11 08:49:38;;;;;;;;;;;22.20;56.30;;;;;;1518283;76;717;-61
2022/11/11 08:51:40;;;;;;;;;;;22.20;56.30;;;;;;1529616;76;709;-61
2022/11/11 08:53:42;;;;;;;;;;;22.20;56.30;;;;;;1523097;76;706;-61
2022/11/11 08:55:44;;;;;;;;;;;22.20;56.30;;;;;;1521021;76;1405;-61
2022/11/11 08:57:46;;;;;;;;;;;22.30;56.40;;;;;;1529330;76;1147;-61
2022/11/11 08:59:48;;;;;;;;;;;22.20;56.30;;;;;;1535591;76;717;-62
2022/11/11 09:01:50;;;;;;;;;;;22.30;56.40;;;;;;1521811;77;730;-61
2022/11/11 09:03:51;;;;;;;;;;;22.30;56.30;;;;;;1507928;77;587;-61
2022/11/11 09:05:53;;;;;;;;;;;22.20;56.30;;;;;;1499781;77;649;-62
2022/11/11 09:07:55;;;;;;;;;;;22.00;56.40;;;;;;1521544;77;1956;-62
2022/11/11 09:09:57;;;;;;;;;;;21.90;56.60;;;;;;1512044;77;1587;-62
2022/11/11 09:11:59;;;;;;;;;;;22.00;56.70;;;;;;1535608;76;704;-61
2022/11/11 09:14:01;;;;;;;;;;;21.90;56.80;;;;;;1523684;76;698;-61
2022/11/11 09:16:03;;;;;;;;;;;21.90;56.80;;;;;;1533159;76;740;-61
2022/11/11 09:18:05;;;;;;;;;;;22.00;56.40;;;;;;1532401;76;1159;-61
2022/11/11 09:20:07;;;;;;;;;;;21.90;56.50;;;;;;1542211;76;726;-61
2022/11/11 09:22:09;;;;;;;;;;;21.90;56.50;;;;;;1543492;76;656;-62
2022/11/11 09:24:11;;;;;;;;;;;21.90;56.30;;;;;;1516678;76;1496;-61
2022/11/11 09:26:13;;;;;;;;;;;22.00;56.30;;;;;;1533083;76;692;-61
2022/11/11 09:28:15;;;;;;;;;;;21.90;56.30;;;;;;1522088;76;1934;-62
2022/11/11 09:30:17;;;;;;;;;;;22.00;56.20;;;;;;1531533;76;680;-61
2022/11/11 09:32:19;;;;;;;;;;;22.00;56.10;;;;;;1530533;76;796;-61
2022/11/11 09:34:21;;;;;;;;;;;22.10;56.00;;;;;;1528830;76;733;-61
2022/11/11 09:36:22;;;;;;;;;;;22.10;56.00;;;;;;1523714;76;1476;-61
2022/11/11 09:38:24;;;;;;;;;;;22.10;55.90;;;;;;1522482;76;1138;-61
2022/11/11 09:40:27;;;;;;;;;;;22.00;55.80;;;;;;1528890;76;742;-62
2022/11/11 09:42:31;;;;;;;;;;;22.10;55.70;;;;;;1521022;76;746;-61
2022/11/11 09:44:46;;;;;;;;;;;22.20;55.70;;;;;;1527727;76;698;-61
2022/11/11 09:46:55;;;;;;;;;;;22.10;55.60;;;;;;1519809;76;1013;-61
2022/11/11 09:49:14;;;;;;;;;;;22.10;55.60;;;;;;1516845;76;1956;-61
2022/11/11 09:51:18;;;;;;;;;;;22.10;55.60;;;;;;1525894;76;1839;-62
2022/11/11 09:53:24;;;;;;;;;;;22.10;55.50;;;;;;1531006;76;1047;-61
2022/11/11 09:55:42;;;;;;;;;;;22.10;55.50;;;;;;1535674;76;674;-61
2022/11/11 09:57:45;;;;;;;;;;;22.20;55.50;;;;;;1538111;76;1130;-61
2022/11/11 09:59:48;;;;;;;;;;;22.10;55.50;;;;;;1526521;76;735;-62
2022/11/11 10:01:52;;;;;;;;;;;22.20;55.50;;;;;;1534909;76;687;-62
2022/11/11 10:03:55;;;;;;;;;;;22.10;55.50;;;;;;1498558;77;1181;-61
2022/11/11 10:06:04;;;;;;;;;;;22.10;55.50;;;;;;1542805;75;1690;-62
2022/11/11 10:08:17;;;;;;;;;;;22.10;55.50;;;;;;1541218;75;1957;-61
2022/11/11 10:10:24;;;;;;;;;;;22.10;55.50;;;;;;1535714;75;1551;-61
2022/11/11 10:12:27;;;;;;;;;;;22.10;55.50;;;;;;1533572;75;624;-61
2022/11/11 10:14:31;;;;;;;;;;;22.10;55.50;;;;;;1541732;75;662;-61
2022/11/11 10:16:44;;;;;;;;;;;22.10;55.50;;;;;;1543457;75;1714;-61
2022/11/11 10:18:48;;;;;;;;;;;22.20;55.50;;;;;;1538561;75;1869;-62
2022/11/11 10:20:51;;;;;;;;;;;22.20;55.50;;;;;;1526860;75;1403;-62
2022/11/11 10:22:55;;;;;;;;;;;22.10;55.40;;;;;;1537666;75;705;-63
2022/11/11 10:25:15;;;;;;;;;;;22.10;55.40;;;;;;1509182;77;1509;-63
2022/11/11 10:27:20;;;;;;;;;;;22.10;55.40;;;;;;1527425;76;1147;-63
2022/11/11 10:29:22;;;;;;;;;;;22.10;55.40;;;;;;1530805;76;1940;-62
2022/11/11 10:31:24;;;;;;;;;;;22.10;55.40;;;;;;1537752;76;719;-62
2022/11/11 10:33:28;;;;;;;;;;;22.10;55.50;;;;;;1533416;76;1504;-62
2022/11/11 10:35:31;;;;;;;;;;;22.10;55.50;;;;;;1535586;76;1670;-62
2022/11/11 10:37:37;;;;;;;;;;;22.10;55.50;;;;;;1530176;76;1140;-62
2022/11/11 10:39:57;;;;;;;;;;;22.10;55.50;;;;;;1530882;76;1939;-62
2022/11/11 10:41:59;;;;;;;;;;;22.10;55.50;;;;;;1526925;76;760;-61
2022/11/11 10:44:01;;;;;;;;;;;22.10;55.50;;;;;;1532250;76;701;-61
2022/11/11 10:46:16;;;;;;;;;;;22.20;55.50;;;;;;1535863;76;645;-61
2022/11/11 10:48:22;;;;;;;;;;;22.10;55.50;;;;;;1523151;76;1941;-61
2022/11/11 10:50:30;;;;;;;;;;;22.10;55.50;;;;;;1521078;76;1683;-60
2022/11/11 10:52:33;;;;;;;;;;;22.10;55.50;;;;;;1529401;76;645;-60
2022/11/11 10:54:40;;;;;;;;;;;22.20;55.40;;;;;;1528562;76;679;-60
2022/11/11 10:56:43;;;;;;;;;;;22.20;55.40;;;;;;1535397;76;1865;-62
2022/11/11 10:58:46;;;;;;;;;;;22.10;55.40;;;;;;1532846;75;1820;-61
2022/11/11 11:00:48;;;;;;;;;;;22.20;55.50;;;;;;1533804;76;1540;-61
2022/11/11 11:03:09;;;;;;;;;;;22.20;55.50;;;;;;1530750;76;751;-61
2022/11/11 11:05:12;;;;;;;;;;;22.10;55.50;;;;;;1531292;76;627;-61
2022/11/11 11:07:15;;;;;;;;;;;22.10;55.60;;;;;;1535880;76;710;-61
2022/11/11 11:09:18;;;;;;;;;;;22.10;55.50;;;;;;1534228;76;1926;-61
2022/11/11 11:11:21;;;;;;;;;;;22.10;55.50;;;;;;1533160;76;665;-61
2022/11/11 11:13:25;;;;;;;;;;;22.20;55.50;;;;;;1531593;76;1082;-61
2022/11/11 11:15:27;;;;;;;;;;;22.20;55.50;;;;;;1528840;76;1480;-62
2022/11/11 11:17:30;;;;;;;;;;;22.30;55.60;;;;;;1532322;76;1140;-62
2022/11/11 11:19:31;;;;;;;;;;;22.20;55.50;;;;;;1532815;76;689;-62
2022/11/11 11:21:51;;;;;;;;;;;22.20;55.50;;;;;;1545227;76;656;-62
2022/11/11 11:23:53;;;;;;;;;;;22.20;55.50;;;;;;1521890;76;656;-61
2022/11/11 11:25:55;;;;;;;;;;;22.20;55.50;;;;;;1524764;76;725;-61
2022/11/11 11:28:01;;;;;;;;;;;22.20;55.60;;;;;;1547838;76;1138;-61
2022/11/11 11:30:10;;;;;;;;;;;22.20;55.60;;;;;;1524027;76;1957;-62
2022/11/11 11:32:13;;;;;;;;;;;22.20;55.50;;;;;;1536399;76;766;-61
2022/11/11 11:34:14;;;;;;;;;;;22.30;55.70;;;;;;1535921;76;705;-61
2022/11/11 11:36:16;;;;;;;;;;;22.20;55.60;;;;;;1535877;76;725;-62
2022/11/11 11:38:18;;;;;;;;;;;22.20;55.60;;;;;;1534687;76;1128;-62
2022/11/11 11:40:20;;;;;;;;;;;22.20;55.60;;;;;;1533616;76;544;-62
2022/11/11 11:42:34;;;;;;;;;;;22.20;55.70;;;;;;1527613;76;637;-61
2022/11/11 11:44:37;;;;;;;;;;;22.20;55.60;;;;;;1536845;76;1571;-61
2022/11/11 11:46:40;;;;;;;;;;;22.10;55.70;;;;;;1536044;76;853;-61
2022/11/11 11:48:47;;;;;;;;;;;22.20;55.70;;;;;;1535454;76;1960;-61
2022/11/11 11:50:50;;;;;;;;;;;22.20;55.80;;;;;;1533712;76;1471;-61
2022/11/11 11:52:53;;;;;;;;;;;22.10;55.90;;;;;;1532942;76;563;-61
2022/11/11 11:55:00;;;;;;;;;;;22.10;55.90;;;;;;1535598;76;659;-62
2022/11/11 11:57:03;;;;;;;;;;;22.10;55.90;;;;;;1523895;76;1488;-61
2022/11/11 11:59:06;;;;;;;;;;;22.20;55.90;;;;;;1526113;76;1136;-62
2022/11/11 12:01:13;;;;;;;;;;;22.20;55.70;;;;;;1535660;76;673;-61
2022/11/11 12:03:27;;;;;;;;;;;22.10;55.80;;;;;;1540937;76;661;-60
2022/11/11 12:05:45;;;;;;;;;;;22.00;56.00;;;;;;1532460;76;695;-61
2022/11/11 12:08:03;;;;;;;;;;;21.90;56.50;;;;;;1529571;76;1195;-62
2022/11/11 12:10:07;;;;;;;;;;;21.90;56.90;;;;;;1529066;76;2036;-61
2022/11/11 12:12:13;;;;;;;;;;;21.80;57.20;;;;;;1530634;76;1536;-62
2022/11/11 12:14:26;;;;;;;;;;;21.90;57.40;;;;;;1529965;76;1677;-61
2022/11/11 12:16:42;;;;;;;;;;;21.80;57.40;;;;;;1540205;76;1793;-62
2022/11/11 12:18:51;;;;;;;;;;;21.90;57.40;;;;;;1530534;76;1831;-62
2022/11/11 12:20:58;;;;;;;;;;;22.00;57.10;;;;;;1524413;76;717;-62
2022/11/11 12:23:16;;;;;;;;;;;22.00;56.80;;;;;;1525767;76;622;-61
2022/11/11 12:25:20;;;;;;;;;;;22.10;56.70;;;;;;1529917;76;1752;-63
2022/11/11 12:27:40;;;;;;;;;;;22.10;56.50;;;;;;1530257;76;1143;-62
2022/11/11 12:29:49;;;;;;;;;;;22.20;56.30;;;;;;1532080;76;1935;-62
2022/11/11 12:31:58;;;;;;;;;;;22.20;56.20;;;;;;1522321;76;1405;-62
2022/11/11 12:34:08;;;;;;;;;;;22.20;56.00;;;;;;1534055;76;1786;-60
2022/11/11 12:36:14;;;;;;;;;;;22.20;55.90;;;;;;1535824;76;1806;-63
2022/11/11 12:38:17;;;;;;;;;;;22.20;55.90;;;;;;1532111;76;1141;-62
2022/11/11 12:40:21;;;;;;;;;;;22.20;55.80;;;;;;1527298;76;1800;-63
2022/11/11 12:42:27;;;;;;;;;;;22.30;55.80;;;;;;1537738;76;657;-63
2022/11/11 12:44:31;;;;;;;;;;;22.30;55.80;;;;;;1546360;76;636;-62
2022/11/11 12:46:37;;;;;;;;;;;22.30;55.70;;;;;;1533728;75;1860;-62
2022/11/11 12:48:43;;;;;;;;;;;22.30;55.60;;;;;;1532946;76;1943;-63
2022/11/11 12:50:53;;;;;;;;;;;22.30;55.60;;;;;;1525861;76;1664;-62
2022/11/11 12:53:00;;;;;;;;;;;22.30;55.50;;;;;;1520817;76;657;-63
2022/11/11 12:55:20;;;;;;;;;;;22.30;55.50;;;;;;1517763;76;1474;-62
2022/11/11 12:57:25;;;;;;;;;;;22.30;55.50;;;;;;1591370;72;232638;-63
2022/11/11 12:59:28;;;;;;;;;;;22.30;55.50;;;;;;1596811;73;778;-63
2022/11/11 13:01:35;;;;;;;;;;;22.30;55.50;;;;;;1602204;73;1909;-64
2022/11/11 13:03:53;;;;;;;;;;;22.30;55.50;;;;;;1601931;74;615;-63
2022/11/11 13:06:09;;;;;;;;;;;22.30;55.50;;;;;;1602653;73;1196;-65
2022/11/11 13:08:31;;;;;;;;;;;22.30;55.50;;;;;;1605150;73;1596;-63
2022/11/11 13:10:46;;;;;;;;;;;22.30;55.50;;;;;;1539957;76;1950;-62
2022/11/11 13:13:05;;;;;;;;;;;22.30;55.50;;;;;;1530889;76;1784;-65
2022/11/11 13:15:22;;;;;;;;;;;22.30;55.40;;;;;;1536290;75;2163;-62
2022/11/11 13:17:24;;;;;;;;;;;22.30;55.40;;;;;;1607698;72;1179;-66
2022/11/11 13:19:46;;;;;;;;;;;22.30;55.40;;;;;;1608718;72;742;-63
2022/11/11 13:21:49;;;;;;;;;;;22.20;55.40;;;;;;1609434;72;1545;-64